Time;durP1;ratioP1;P1;durP2;ratioP2;P2;SDS_P1;SDS_P2;PMS_P1;PMS_P2;Temp;Humidity;BMP_temperature;BMP_pressure;BME280_temperature;BME280_humidity;BME280_pressure;Samples;Min_cycle;Max_cycle;Signal;HPM_P1;HPM_P2
2021/03/10 00:01:55;;;;;;;32.10;20.80;;;2.60;84.50;;;;;;5075616;28;20176;-85
2021/03/10 00:04:25;;;;;;;29.53;20.87;;;2.60;84.40;;;;;;5092778;28;20203;-85
2021/03/10 00:06:59;;;;;;;27.43;19.50;;;2.60;84.30;;;;;;5093244;28;20326;-85
2021/03/10 00:09:28;;;;;;;33.03;19.23;;;2.60;84.30;;;;;;5092841;28;20167;-85
2021/03/10 00:12:01;;;;;;;35.70;20.13;;;2.60;84.00;;;;;;5092805;28;20659;-85
2021/03/10 00:14:34;;;;;;;28.30;19.60;;;2.50;83.90;;;;;;5074643;28;20185;-84
2021/03/10 00:17:05;;;;;;;34.57;18.87;;;2.40;84.00;;;;;;5074681;28;20219;-84
2021/03/10 00:19:40;;;;;;;29.70;19.53;;;2.40;84.20;;;;;;5074706;28;20235;-84
2021/03/10 00:22:08;;;;;;;28.13;17.57;;;2.50;84.10;;;;;;5092797;28;20255;-85
2021/03/10 00:24:47;;;;;;;27.33;18.47;;;2.40;83.90;;;;;;5074460;28;20202;-85
2021/03/10 00:27:27;;;;;;;27.07;18.40;;;2.40;83.80;;;;;;5092972;28;20184;-85
2021/03/10 00:30:00;;;;;;;27.70;18.07;;;2.30;84.20;;;;;;5095656;28;20169;-84
2021/03/10 00:32:28;;;;;;;28.13;18.80;;;2.30;84.30;;;;;;5078030;28;20637;-85
2021/03/10 00:35:02;;;;;;;25.53;17.67;;;2.30;84.30;;;;;;5078257;28;20173;-85
2021/03/10 00:37:37;;;;;;;24.43;18.17;;;2.30;84.20;;;;;;5096401;28;20173;-83
2021/03/10 00:40:04;;;;;;;23.33;16.60;;;2.30;84.10;;;;;;5096637;28;20543;-85
2021/03/10 00:42:36;;;;;;;25.60;17.60;;;2.30;84.00;;;;;;5096346;28;20195;-85
2021/03/10 00:45:02;;;;;;;25.53;17.33;;;2.30;83.70;;;;;;5077951;28;20210;-85
2021/03/10 00:47:29;;;;;;;30.17;17.97;;;2.30;83.80;;;;;;5077978;28;20269;-85
2021/03/10 00:49:55;;;;;;;27.33;18.20;;;2.30;83.80;;;;;;5077858;28;20204;-85
2021/03/10 00:52:30;;;;;;;29.97;18.07;;;2.30;83.70;;;;;;5095854;28;20607;-85
2021/03/10 00:55:04;;;;;;;28.10;18.23;;;2.40;83.50;;;;;;5095986;28;20171;-85
2021/03/10 00:57:30;;;;;;;35.40;19.33;;;2.30;83.30;;;;;;5077703;28;20584;-85
2021/03/10 01:00:01;;;;;;;30.17;17.87;;;2.30;83.40;;;;;;5077725;28;20171;-85
2021/03/10 01:02:32;;;;;;;29.57;18.87;;;2.20;83.60;;;;;;5096043;28;20190;-85
2021/03/10 01:05:05;;;;;;;26.80;18.37;;;2.20;83.90;;;;;;5095772;28;20698;-85
2021/03/10 01:07:36;;;;;;;35.60;18.83;;;2.20;84.00;;;;;;5077669;28;20176;-85
2021/03/10 01:10:11;;;;;;;22.80;17.03;;;2.10;84.20;;;;;;5077791;28;20646;-85
2021/03/10 01:12:44;;;;;;;26.53;18.03;;;2.10;84.50;;;;;;5095504;28;20275;-85
2021/03/10 01:15:21;;;;;;;28.53;17.60;;;2.00;84.80;;;;;;5077289;28;20224;-85
2021/03/10 01:17:48;;;;;;;23.73;17.30;;;2.10;84.80;;;;;;5095564;28;20257;-85
2021/03/10 01:20:23;;;;;;;26.20;17.07;;;2.10;84.90;;;;;;5077439;28;20213;-85
2021/03/10 01:22:55;;;;;;;23.93;16.43;;;2.10;85.00;;;;;;5077220;28;20219;-85
2021/03/10 01:25:26;;;;;;;26.20;16.63;;;2.10;85.10;;;;;;5095331;28;20265;-85
2021/03/10 01:27:52;;;;;;;26.00;17.20;;;2.20;85.00;;;;;;5077087;28;20165;-85
2021/03/10 01:30:24;;;;;;;26.03;16.67;;;2.20;84.90;;;;;;5077098;28;20228;-85
2021/03/10 01:32:57;;;;;;;26.20;16.97;;;2.20;85.00;;;;;;5094964;28;20207;-85
2021/03/10 01:35:26;;;;;;;26.27;16.10;;;2.30;84.90;;;;;;5095214;28;20253;-85
2021/03/10 01:37:59;;;;;;;24.40;15.80;;;2.30;84.70;;;;;;5095055;28;20216;-85
2021/03/10 01:40:31;;;;;;;24.80;15.03;;;2.30;84.70;;;;;;5094170;28;20250;-85
2021/03/10 01:43:05;;;;;;;19.20;14.77;;;2.30;84.70;;;;;;5076643;28;20273;-85
2021/03/10 01:45:36;;;;;;;23.30;15.93;;;2.30;84.70;;;;;;5095271;28;20547;-85
2021/03/10 01:48:09;;;;;;;23.47;15.47;;;2.30;84.70;;;;;;5095154;28;20168;-85
2021/03/10 01:50:41;;;;;;;18.03;13.43;;;2.30;84.70;;;;;;5095200;28;20546;-85
2021/03/10 01:53:11;;;;;;;19.43;13.87;;;2.30;84.70;;;;;;5094766;28;20203;-85
2021/03/10 01:55:49;;;;;;;22.13;14.30;;;2.30;84.60;;;;;;5076570;28;20220;-85
2021/03/10 01:58:22;;;;;;;20.20;15.00;;;2.30;84.50;;;;;;5076563;28;20178;-85
2021/03/10 02:00:52;;;;;;;22.87;15.73;;;2.30;84.30;;;;;;5076812;28;20206;-85
2021/03/10 02:03:25;;;;;;;24.43;15.23;;;2.30;84.20;;;;;;5076204;28;20252;-85
2021/03/10 02:05:58;;;;;;;27.37;16.37;;;2.30;84.20;;;;;;5076251;28;20550;-85
2021/03/10 02:08:54;;;;;;;22.10;15.80;;;2.30;84.20;;;;;;5094446;28;20189;-85
2021/03/10 02:11:39;;;;;;;22.23;15.90;;;2.30;84.00;;;;;;5076247;28;20262;-85
2021/03/10 02:14:31;;;;;;;24.33;16.83;;;2.40;83.90;;;;;;5094326;28;20682;-85
2021/03/10 02:16:59;;;;;;;25.97;16.77;;;2.30;83.80;;;;;;5076208;28;20181;-85
2021/03/10 02:20:04;;;;;;;25.43;17.73;;;2.30;83.70;;;;;;5094575;28;20597;-85
2021/03/10 02:22:35;;;;;;;22.27;16.83;;;2.40;83.50;;;;;;5075892;28;20205;-85
2021/03/10 02:25:30;;;;;;;27.57;17.97;;;2.40;83.40;;;;;;5075994;28;20216;-85
2021/03/10 02:28:03;;;;;;;24.60;17.70;;;2.40;83.20;;;;;;5075950;28;20168;-85
2021/03/10 02:30:50;;;;;;;23.73;16.93;;;2.40;83.10;;;;;;5094150;28;20176;-85
2021/03/10 02:33:26;;;;;;;25.33;16.63;;;2.40;83.00;;;;;;5075915;28;20681;-85
2021/03/10 02:36:06;;;;;;;21.30;15.90;;;2.40;82.90;;;;;;5094080;28;20172;-85
2021/03/10 02:38:32;;;;;;;25.50;16.50;;;2.40;82.80;;;;;;5075788;28;20174;-85
2021/03/10 02:41:05;;;;;;;25.13;17.13;;;2.40;82.80;;;;;;5093901;28;20219;-85
2021/03/10 02:43:39;;;;;;;26.07;16.90;;;2.30;82.80;;;;;;5075761;28;20209;-85
2021/03/10 02:46:17;;;;;;;25.37;17.77;;;2.30;82.90;;;;;;5093844;28;20178;-85
2021/03/10 02:48:45;;;;;;;27.70;18.30;;;2.30;83.40;;;;;;5093840;28;20167;-85
2021/03/10 02:51:14;;;;;;;24.00;16.60;;;2.30;83.70;;;;;;5093627;28;20170;-86
2021/03/10 02:53:51;;;;;;;26.53;17.00;;;2.20;84.00;;;;;;5075500;28;20207;-85
2021/03/10 02:56:25;;;;;;;23.50;17.47;;;2.10;84.20;;;;;;5075545;28;20551;-84
2021/03/10 02:59:01;;;;;;;22.80;15.10;;;2.10;84.30;;;;;;5075490;28;20178;-85
2021/03/10 03:01:36;;;;;;;24.80;16.93;;;2.10;84.30;;;;;;5093616;28;20216;-85
2021/03/10 03:04:05;;;;;;;28.10;17.60;;;2.20;84.20;;;;;;5075330;28;20574;-85
2021/03/10 03:06:36;;;;;;;28.57;16.63;;;2.10;84.10;;;;;;5075324;28;20177;-85
2021/03/10 03:09:11;;;;;;;23.50;15.83;;;2.10;84.40;;;;;;5093765;28;20176;-85
2021/03/10 03:11:44;;;;;;;22.03;15.70;;;2.10;85.10;;;;;;5075353;28;20184;-85
2021/03/10 03:14:19;;;;;;;23.97;16.43;;;1.90;85.50;;;;;;5075163;28;20198;-85
2021/03/10 03:16:55;;;;;;;27.10;19.30;;;1.80;86.50;;;;;;5093447;28;20293;-85
2021/03/10 03:19:27;;;;;;;26.00;18.00;;;1.70;87.00;;;;;;5075186;28;20262;-85
2021/03/10 03:21:53;;;;;;;26.67;18.83;;;1.60;87.20;;;;;;5093307;28;20176;-85
2021/03/10 03:24:29;;;;;;;29.27;19.27;;;1.50;87.40;;;;;;5075090;28;20207;-85
2021/03/10 03:26:57;;;;;;;31.40;19.87;;;1.40;87.90;;;;;;5093303;28;20248;-85
2021/03/10 03:29:31;;;;;;;29.77;20.53;;;1.40;88.10;;;;;;5093339;28;20173;-85
2021/03/10 03:32:04;;;;;;;32.37;21.07;;;1.40;88.10;;;;;;5075416;28;20170;-85
2021/03/10 03:34:32;;;;;;;29.20;20.47;;;1.40;88.10;;;;;;5075062;28;20634;-85
2021/03/10 03:37:05;;;;;;;29.43;20.57;;;1.40;88.00;;;;;;5093298;28;20567;-85
2021/03/10 03:39:39;;;;;;;28.70;19.53;;;1.50;87.70;;;;;;5075009;28;20664;-85
2021/03/10 03:42:10;;;;;;;26.33;19.77;;;1.50;87.40;;;;;;5093331;28;20171;-84
2021/03/10 03:44:42;;;;;;;27.00;18.30;;;1.50;87.40;;;;;;5093059;28;20194;-85
2021/03/10 03:47:18;;;;;;;28.43;19.60;;;1.50;87.40;;;;;;5075545;28;20284;-85
2021/03/10 03:49:54;;;;;;;26.23;19.33;;;1.50;87.60;;;;;;5075048;28;20171;-85
2021/03/10 03:52:31;;;;;;;28.13;20.20;;;1.50;87.90;;;;;;5074802;28;20277;-85
2021/03/10 03:55:05;;;;;;;30.00;19.73;;;1.40;88.20;;;;;;5093043;28;20170;-85
2021/03/10 03:57:43;;;;;;;32.03;20.30;;;1.40;87.90;;;;;;5093255;28;20624;-85
2021/03/10 04:00:21;;;;;;;31.37;21.70;;;1.40;87.60;;;;;;5074838;28;20183;-85
2021/03/10 04:02:57;;;;;;;32.43;19.73;;;1.40;87.40;;;;;;5093129;28;20194;-84
2021/03/10 04:05:30;;;;;;;28.73;18.47;;;1.40;87.30;;;;;;5078972;28;20198;-85
2021/03/10 04:08:03;;;;;;;31.10;19.73;;;1.40;87.20;;;;;;5078644;28;20181;-85
2021/03/10 04:10:33;;;;;;;26.23;18.77;;;1.40;87.10;;;;;;5096883;28;20170;-85
2021/03/10 04:13:08;;;;;;;30.30;21.07;;;1.30;87.10;;;;;;5096679;28;20768;-85
2021/03/10 04:15:35;;;;;;;30.37;20.60;;;1.30;87.20;;;;;;5096731;28;20174;-85
2021/03/10 04:18:06;;;;;;;30.07;21.10;;;1.30;87.10;;;;;;5096955;28;20676;-85
2021/03/10 04:20:32;;;;;;;31.60;20.43;;;1.30;86.90;;;;;;5078332;28;20630;-85
2021/03/10 04:23:07;;;;;;;25.70;19.30;;;1.30;86.60;;;;;;5096503;28;20198;-85
2021/03/10 04:25:40;;;;;;;27.80;20.20;;;1.20;86.30;;;;;;5096495;28;20178;-85
2021/03/10 04:28:18;;;;;;;28.67;19.40;;;1.20;85.80;;;;;;5096480;28;20543;-85
2021/03/10 04:30:50;;;;;;;30.80;19.40;;;1.10;85.50;;;;;;5096669;28;20213;-85
2021/03/10 04:33:25;;;;;;;31.60;19.30;;;1.00;85.30;;;;;;5096257;28;20229;-84
2021/03/10 04:36:01;;;;;;;26.90;18.43;;;1.00;85.20;;;;;;5078185;28;20171;-84
2021/03/10 04:38:32;;;;;;;32.87;20.47;;;0.80;85.10;;;;;;5096290;28;20170;-84
2021/03/10 04:40:59;;;;;;;28.17;19.63;;;0.80;85.10;;;;;;5096542;28;20198;-84
2021/03/10 04:43:34;;;;;;;26.87;18.73;;;0.80;85.30;;;;;;5077951;28;20209;-84
2021/03/10 04:46:08;;;;;;;25.60;18.63;;;0.90;85.40;;;;;;5077951;28;20641;-84
2021/03/10 04:48:41;;;;;;;23.17;17.27;;;0.90;85.20;;;;;;5096238;28;20215;-84
2021/03/10 04:51:14;;;;;;;23.67;17.20;;;0.90;84.90;;;;;;5078307;28;20631;-84
2021/03/10 04:53:46;;;;;;;26.97;18.70;;;1.00;84.90;;;;;;5095950;28;20194;-84
2021/03/10 04:56:18;;;;;;;29.00;17.90;;;1.00;84.60;;;;;;5096054;28;20258;-84
2021/03/10 04:58:54;;;;;;;25.53;17.60;;;1.00;84.30;;;;;;5095955;28;20577;-83
2021/03/10 05:01:31;;;;;;;30.80;18.40;;;1.00;84.00;;;;;;5095892;28;20645;-84
2021/03/10 05:04:01;;;;;;;28.13;18.33;;;1.00;83.90;;;;;;5077450;28;20678;-84
2021/03/10 05:06:34;;;;;;;26.70;18.30;;;0.90;83.70;;;;;;5077573;28;20249;-84
2021/03/10 05:09:05;;;;;;;29.20;17.97;;;0.90;83.50;;;;;;5095707;28;20170;-84
2021/03/10 05:11:38;;;;;;;28.60;18.73;;;0.90;83.50;;;;;;5095770;28;20626;-84
2021/03/10 05:14:08;;;;;;;27.40;17.97;;;0.90;83.30;;;;;;5077386;28;20285;-84
2021/03/10 05:16:44;;;;;;;26.83;18.93;;;0.80;83.20;;;;;;5076338;28;20181;-83
2021/03/10 05:19:17;;;;;;;24.30;17.50;;;0.80;83.10;;;;;;5095601;28;20630;-84
2021/03/10 05:21:44;;;;;;;34.57;17.80;;;0.80;83.00;;;;;;5077690;28;20171;-83
2021/03/10 05:24:16;;;;;;;28.53;18.60;;;0.80;83.00;;;;;;5095415;28;20298;-84
2021/03/10 05:26:45;;;;;;;32.03;19.90;;;0.70;82.90;;;;;;5095715;28;20651;-83
2021/03/10 05:29:12;;;;;;;35.40;20.70;;;0.70;82.90;;;;;;5095351;28;20547;-83
2021/03/10 05:31:44;;;;;;;31.17;21.07;;;0.60;82.90;;;;;;5095283;28;20177;-84
2021/03/10 05:34:17;;;;;;;31.37;21.37;;;0.60;82.90;;;;;;5076976;28;20301;-83
2021/03/10 05:36:51;;;;;;;32.03;21.40;;;0.60;82.80;;;;;;5095204;28;20175;-84
2021/03/10 05:39:20;;;;;;;31.23;21.07;;;0.60;82.80;;;;;;5076968;28;20204;-83
2021/03/10 05:41:47;;;;;;;37.00;21.07;;;0.50;83.30;;;;;;5077017;28;20548;-84
2021/03/10 05:44:20;;;;;;;28.67;20.33;;;0.40;83.50;;;;;;5094961;28;20670;-83
2021/03/10 05:46:54;;;;;;;32.00;20.13;;;0.40;83.80;;;;;;5094946;28;20171;-83
2021/03/10 05:49:31;;;;;;;28.60;20.00;;;0.40;83.90;;;;;;5095002;28;20171;-84
2021/03/10 05:52:01;;;;;;;30.70;20.93;;;0.40;84.10;;;;;;5094867;28;20170;-83
2021/03/10 05:54:36;;;;;;;27.53;20.37;;;0.40;84.00;;;;;;5094805;28;20175;-85
2021/03/10 05:57:05;;;;;;;27.30;19.47;;;0.40;83.70;;;;;;5094822;28;20170;-84
2021/03/10 05:59:36;;;;;;;29.90;19.37;;;0.30;83.60;;;;;;5094784;28;20175;-83
2021/03/10 06:02:03;;;;;;;29.33;20.73;;;0.30;83.60;;;;;;5094964;28;20171;-83
2021/03/10 06:04:43;;;;;;;27.53;19.20;;;0.40;83.40;;;;;;5094521;28;20198;-83
2021/03/10 06:07:30;;;;;;;36.07;20.37;;;0.30;83.30;;;;;;5094550;28;20166;-84
2021/03/10 06:10:06;;;;;;;33.43;21.13;;;0.30;83.60;;;;;;5094530;28;20656;-84
2021/03/10 06:12:47;;;;;;;37.90;20.63;;;0.30;84.30;;;;;;5076241;28;20190;-84
2021/03/10 06:15:23;;;;;;;29.70;20.03;;;0.20;84.50;;;;;;5094858;28;20549;-84
2021/03/10 06:17:55;;;;;;;39.10;20.50;;;0.30;84.70;;;;;;5094356;28;20543;-84
2021/03/10 06:20:32;;;;;;;36.03;20.40;;;0.30;85.00;;;;;;5076287;28;20162;-84
2021/03/10 06:23:03;;;;;;;32.43;20.20;;;0.30;85.30;;;;;;5094661;28;20194;-84
2021/03/10 06:25:42;;;;;;;27.60;19.63;;;0.30;85.30;;;;;;5094559;28;20324;-84
2021/03/10 06:28:15;;;;;;;38.87;21.83;;;0.40;85.10;;;;;;5093837;28;20174;-84
2021/03/10 06:30:49;;;;;;;32.23;20.77;;;0.60;84.60;;;;;;5094091;28;20635;-83
2021/03/10 06:33:27;;;;;;;32.13;21.13;;;0.60;84.10;;;;;;5075925;28;20242;-83
2021/03/10 06:36:03;;;;;;;27.57;19.43;;;0.70;83.80;;;;;;5094002;28;20174;-84
2021/03/10 06:38:51;;;;;;;32.13;21.27;;;0.70;83.80;;;;;;5075966;28;20269;-84
2021/03/10 06:41:33;;;;;;;30.63;20.60;;;0.70;83.80;;;;;;5075801;28;20170;-84
2021/03/10 06:44:14;;;;;;;33.60;19.50;;;0.70;83.80;;;;;;5093819;28;20690;-84
2021/03/10 06:47:04;;;;;;;36.37;21.67;;;0.80;83.90;;;;;;5093874;28;20194;-85
2021/03/10 06:49:54;;;;;;;29.80;20.70;;;0.80;84.20;;;;;;5094034;28;20582;-84
2021/03/10 06:52:21;;;;;;;35.80;20.40;;;0.80;84.00;;;;;;5075628;28;20277;-84
2021/03/10 06:55:04;;;;;;;30.37;20.20;;;0.90;84.00;;;;;;5093760;28;20202;-84
2021/03/10 06:57:30;;;;;;;29.03;20.43;;;0.90;83.70;;;;;;5094047;28;20167;-84
2021/03/10 06:59:57;;;;;;;27.60;19.97;;;0.90;83.60;;;;;;5093949;28;20163;-84
2021/03/10 07:02:32;;;;;;;32.97;20.40;;;1.00;83.50;;;;;;5093575;28;20190;-84
2021/03/10 07:05:00;;;;;;;31.00;20.03;;;1.00;83.40;;;;;;5075361;28;20574;-84
2021/03/10 07:07:36;;;;;;;35.10;20.60;;;1.00;83.40;;;;;;5075394;28;20175;-84
2021/03/10 07:10:08;;;;;;;31.93;20.17;;;1.10;83.60;;;;;;5093597;28;20175;-84
2021/03/10 07:12:44;;;;;;;37.03;21.13;;;1.00;83.80;;;;;;5093400;28;20195;-84
2021/03/10 07:15:21;;;;;;;30.80;19.87;;;1.00;83.80;;;;;;5076211;28;20183;-85
2021/03/10 07:17:54;;;;;;;32.03;21.53;;;1.00;84.20;;;;;;5075262;28;20653;-84
2021/03/10 07:20:21;;;;;;;41.27;22.10;;;1.00;84.60;;;;;;5093460;28;20175;-84
2021/03/10 07:23:11;;;;;;;28.13;20.60;;;1.00;84.50;;;;;;5075193;28;20195;-85
2021/03/10 07:25:47;;;;;;;31.43;20.47;;;1.00;85.10;;;;;;5093455;28;20269;-84
2021/03/10 07:28:15;;;;;;;32.57;21.23;;;1.00;84.90;;;;;;5093644;28;20234;-84
2021/03/10 07:30:48;;;;;;;28.87;21.13;;;1.00;84.90;;;;;;5093332;28;20167;-84
2021/03/10 07:33:17;;;;;;;33.37;21.50;;;1.10;84.80;;;;;;5074950;28;20218;-83
2021/03/10 07:36:00;;;;;;;30.43;20.10;;;1.20;84.80;;;;;;5075293;28;20550;-83
2021/03/10 07:38:39;;;;;;;32.93;21.13;;;1.20;84.70;;;;;;5094360;28;20180;-84
2021/03/10 07:41:14;;;;;;;30.40;21.27;;;1.30;84.40;;;;;;5079479;28;20192;-84
2021/03/10 07:43:49;;;;;;;30.40;19.90;;;1.40;84.20;;;;;;5097375;28;20202;-84
2021/03/10 07:46:37;;;;;;;28.93;21.10;;;1.50;84.20;;;;;;5097418;28;20170;-84
2021/03/10 07:49:25;;;;;;;33.10;22.33;;;1.60;84.40;;;;;;5097426;28;20177;-84
2021/03/10 07:52:06;;;;;;;36.63;22.40;;;1.60;84.30;;;;;;5079117;28;20171;-84
2021/03/10 07:54:41;;;;;;;33.97;22.50;;;1.70;84.30;;;;;;5097238;28;20178;-84
2021/03/10 07:57:14;;;;;;;32.67;22.70;;;1.80;84.30;;;;;;5078926;28;20223;-84
2021/03/10 07:59:55;;;;;;;35.90;24.20;;;1.80;84.30;;;;;;5078821;28;20201;-84
2021/03/10 08:02:26;;;;;;;42.37;26.47;;;1.90;84.20;;;;;;5078927;28;20203;-84
2021/03/10 08:04:55;;;;;;;35.00;23.93;;;1.90;83.90;;;;;;5078894;28;20196;-84
2021/03/10 08:07:25;;;;;;;36.30;24.77;;;2.00;83.90;;;;;;5078784;28;20171;-84
2021/03/10 08:09:53;;;;;;;35.87;24.67;;;2.10;83.70;;;;;;5096868;28;20252;-84
2021/03/10 08:12:34;;;;;;;39.37;25.53;;;2.10;83.60;;;;;;5078511;28;20200;-84
2021/03/10 08:15:05;;;;;;;42.70;26.33;;;2.10;83.60;;;;;;5096758;28;20176;-84
2021/03/10 08:17:34;;;;;;;40.73;26.03;;;2.20;83.80;;;;;;5078718;28;20270;-83
2021/03/10 08:20:03;;;;;;;36.80;25.13;;;2.30;83.80;;;;;;5078414;28;20170;-83
2021/03/10 08:22:31;;;;;;;36.47;24.90;;;2.30;84.00;;;;;;5096605;28;20725;-83
2021/03/10 08:25:03;;;;;;;38.97;26.73;;;2.30;83.70;;;;;;5078273;28;20295;-84
2021/03/10 08:27:32;;;;;;;42.47;25.63;;;2.40;83.90;;;;;;5078531;28;20676;-84
2021/03/10 08:30:04;;;;;;;40.40;26.13;;;2.50;83.70;;;;;;5097167;28;20217;-84
2021/03/10 08:32:33;;;;;;;39.27;25.83;;;2.50;83.60;;;;;;5078048;28;20214;-84
2021/03/10 08:35:20;;;;;;;38.23;26.73;;;2.60;83.60;;;;;;5096451;28;20170;-84
2021/03/10 08:37:59;;;;;;;38.43;25.97;;;2.60;83.40;;;;;;5096680;28;20159;-83
2021/03/10 08:40:34;;;;;;;39.63;26.83;;;2.70;83.50;;;;;;5078699;28;20170;-83
2021/03/10 08:43:03;;;;;;;46.33;27.90;;;2.80;83.60;;;;;;5078008;28;20198;-83
2021/03/10 08:45:38;;;;;;;45.50;26.80;;;2.80;83.70;;;;;;5078309;28;20195;-84
2021/03/10 08:48:11;;;;;;;40.63;27.33;;;2.80;84.00;;;;;;5078904;28;20171;-84
2021/03/10 08:50:42;;;;;;;41.47;27.07;;;2.90;84.00;;;;;;5077561;28;20605;-84
2021/03/10 08:53:11;;;;;;;43.17;27.23;;;2.90;84.10;;;;;;5077844;28;20201;-84
2021/03/10 08:55:46;;;;;;;41.63;27.53;;;3.00;84.00;;;;;;5096030;28;20173;-83
2021/03/10 08:58:20;;;;;;;38.07;24.67;;;3.00;84.00;;;;;;5096017;28;20631;-84
2021/03/10 09:00:46;;;;;;;37.83;25.67;;;3.10;84.10;;;;;;5096804;28;20647;-85
2021/03/10 09:03:17;;;;;;;39.73;26.00;;;3.10;84.20;;;;;;5079725;28;20195;-85
2021/03/10 09:05:45;;;;;;;43.23;28.97;;;3.10;84.40;;;;;;5096359;28;20155;-84
2021/03/10 09:08:13;;;;;;;40.03;27.87;;;3.20;84.50;;;;;;5095901;28;20161;-84
2021/03/10 09:10:48;;;;;;;42.60;28.73;;;3.20;84.50;;;;;;5096985;28;20177;-85
2021/03/10 09:13:15;;;;;;;40.37;27.07;;;3.30;84.60;;;;;;5079832;28;20281;-83
2021/03/10 09:15:41;;;;;;;42.87;27.47;;;3.30;84.50;;;;;;5096269;28;20172;-85
2021/03/10 09:18:12;;;;;;;45.77;28.13;;;3.30;84.50;;;;;;5079585;28;20223;-85
2021/03/10 09:20:44;;;;;;;47.37;28.50;;;3.40;84.80;;;;;;5096209;28;20199;-86
2021/03/10 09:23:13;;;;;;;44.40;28.93;;;3.40;84.70;;;;;;5078467;28;20672;-83
2021/03/10 09:25:45;;;;;;;39.77;27.57;;;3.40;84.70;;;;;;5078099;28;20203;-83
2021/03/10 09:28:18;;;;;;;46.97;26.67;;;3.40;85.00;;;;;;5095314;28;20169;-84
2021/03/10 09:30:51;;;;;;;46.83;30.57;;;3.50;85.10;;;;;;5077191;28;20199;-84
2021/03/10 09:33:25;;;;;;;42.30;28.37;;;3.50;85.30;;;;;;5095112;28;20207;-84
2021/03/10 09:36:02;;;;;;;44.10;30.33;;;3.50;85.40;;;;;;5095281;28;20246;-84
2021/03/10 09:38:36;;;;;;;45.80;28.03;;;3.50;85.50;;;;;;5095266;28;20252;-84
2021/03/10 09:41:06;;;;;;;47.73;29.13;;;3.60;85.70;;;;;;5076952;28;20196;-84
2021/03/10 09:43:41;;;;;;;50.07;31.40;;;3.60;85.50;;;;;;5094890;28;20193;-84
2021/03/10 09:46:16;;;;;;;49.30;30.03;;;3.70;85.50;;;;;;5095083;28;20231;-84
2021/03/10 09:48:48;;;;;;;47.53;29.17;;;3.80;85.80;;;;;;5076905;28;20171;-84
2021/03/10 09:51:16;;;;;;;50.87;31.53;;;3.80;85.80;;;;;;5095131;28;20178;-84
2021/03/10 09:53:51;;;;;;;42.33;26.57;;;3.80;85.70;;;;;;5094707;28;20191;-84
2021/03/10 09:56:24;;;;;;;47.77;32.33;;;3.80;85.60;;;;;;5076876;28;20177;-84
2021/03/10 09:58:58;;;;;;;38.57;25.50;;;3.90;85.90;;;;;;5094856;28;20181;-84
2021/03/10 10:01:33;;;;;;;46.77;31.83;;;4.00;85.70;;;;;;5093971;28;20664;-84
2021/03/10 10:04:16;;;;;;;45.43;31.63;;;4.10;85.70;;;;;;5094571;28;20202;-84
2021/03/10 10:06:57;;;;;;;47.10;32.63;;;4.20;85.80;;;;;;5076452;28;20163;-84
2021/03/10 10:09:27;;;;;;;45.40;30.07;;;4.20;85.50;;;;;;5094895;28;20156;-83
2021/03/10 10:11:58;;;;;;;46.53;31.43;;;4.30;85.60;;;;;;5094625;28;20630;-83
2021/03/10 10:14:31;;;;;;;46.73;30.50;;;4.40;85.50;;;;;;5094649;28;20175;-83
2021/03/10 10:17:04;;;;;;;44.17;25.80;;;4.40;85.30;;;;;;5094802;28;20184;-83
2021/03/10 10:19:35;;;;;;;47.50;31.03;;;4.40;85.30;;;;;;5094455;28;20708;-83
2021/03/10 10:22:05;;;;;;;48.10;31.87;;;4.50;85.20;;;;;;5076315;28;20242;-83
2021/03/10 10:24:41;;;;;;;47.53;31.00;;;4.50;85.00;;;;;;5094329;28;20290;-85
2021/03/10 10:27:15;;;;;;;50.47;31.27;;;4.60;85.00;;;;;;5076085;28;20172;-85
2021/03/10 10:29:41;;;;;;;40.03;25.93;;;4.60;84.60;;;;;;5094651;28;20276;-85
2021/03/10 10:32:11;;;;;;;34.80;22.13;;;4.60;84.40;;;;;;5075833;28;20227;-84
2021/03/10 10:34:38;;;;;;;40.00;28.63;;;4.70;83.90;;;;;;5076066;28;20646;-84
2021/03/10 10:37:06;;;;;;;39.40;27.37;;;4.80;84.00;;;;;;5094398;28;20174;-85
2021/03/10 10:39:41;;;;;;;42.73;28.27;;;4.80;83.60;;;;;;5094133;28;20553;-85
2021/03/10 10:42:07;;;;;;;40.03;28.27;;;4.80;83.40;;;;;;5075793;28;20275;-85
2021/03/10 10:44:33;;;;;;;45.20;28.73;;;5.00;83.60;;;;;;5076294;28;20203;-84
2021/03/10 10:46:59;;;;;;;41.13;26.07;;;5.00;83.30;;;;;;5075713;28;20178;-85
2021/03/10 10:49:25;;;;;;;42.30;26.97;;;5.10;83.10;;;;;;5077337;28;20216;-85
2021/03/10 10:51:51;;;;;;;40.77;27.90;;;5.20;83.20;;;;;;5075728;28;20201;-84
2021/03/10 10:54:16;;;;;;;29.10;19.20;;;5.30;83.10;;;;;;5075483;28;20229;-84
2021/03/10 10:56:50;;;;;;;38.17;26.80;;;5.30;83.00;;;;;;5093950;28;20174;-84
2021/03/10 10:59:20;;;;;;;36.13;25.77;;;5.40;82.50;;;;;;5075562;28;20183;-85
2021/03/10 11:01:51;;;;;;;38.47;25.70;;;5.40;82.40;;;;;;5075753;28;20179;-86
2021/03/10 11:04:21;;;;;;;34.87;23.93;;;5.50;82.40;;;;;;5076396;28;20202;-85
2021/03/10 11:06:53;;;;;;;31.50;21.90;;;5.50;81.40;;;;;;5075774;28;20228;-85
2021/03/10 11:09:22;;;;;;;36.20;23.73;;;5.70;80.70;;;;;;5093571;28;20223;-84
2021/03/10 11:11:52;;;;;;;32.40;22.20;;;5.70;80.40;;;;;;5075313;28;20179;-84
2021/03/10 11:14:23;;;;;;;30.40;21.40;;;5.80;79.80;;;;;;5075249;28;20547;-85
2021/03/10 11:16:57;;;;;;;33.23;23.83;;;5.90;79.30;;;;;;5093419;28;20238;-86
2021/03/10 11:19:27;;;;;;;30.67;21.03;;;5.90;78.80;;;;;;5075357;28;20188;-86
2021/03/10 11:21:57;;;;;;;32.23;22.80;;;5.90;78.50;;;;;;5075471;28;20176;-87
2021/03/10 11:24:27;;;;;;;31.23;20.80;;;5.80;78.70;;;;;;5075813;28;20240;-85
2021/03/10 11:26:55;;;;;;;31.93;22.93;;;5.80;77.80;;;;;;5095182;28;20251;-85
2021/03/10 11:29:23;;;;;;;33.10;23.30;;;5.80;78.40;;;;;;5093795;28;20182;-86
2021/03/10 11:31:53;;;;;;;27.87;19.30;;;6.00;78.70;;;;;;5093332;28;20174;-85
2021/03/10 11:34:21;;;;;;;30.27;20.70;;;6.00;76.80;;;;;;5074904;28;20241;-85
2021/03/10 11:36:48;;;;;;;31.37;22.30;;;6.00;77.40;;;;;;5075263;28;20212;-85
2021/03/10 11:39:15;;;;;;;27.53;18.43;;;6.00;76.70;;;;;;5074958;28;20179;-84
2021/03/10 11:41:41;;;;;;;29.43;20.53;;;6.00;76.90;;;;;;5075065;28;20254;-84
2021/03/10 11:44:08;;;;;;;30.87;21.37;;;5.90;76.60;;;;;;5074946;28;20229;-85
2021/03/10 11:46:36;;;;;;;28.53;21.87;;;6.00;76.70;;;;;;5075077;28;20654;-85
2021/03/10 11:49:04;;;;;;;28.97;18.63;;;6.00;76.10;;;;;;5093419;28;20611;-84
2021/03/10 11:51:31;;;;;;;21.13;15.27;;;6.00;74.20;;;;;;5074895;28;20186;-84
2021/03/10 11:53:59;;;;;;;24.73;17.93;;;6.00;75.10;;;;;;5092907;28;20202;-85
2021/03/10 11:56:32;;;;;;;27.37;19.63;;;6.10;75.70;;;;;;5092950;28;20179;-84
2021/03/10 11:59:04;;;;;;;27.10;20.33;;;6.30;75.70;;;;;;5074800;28;20592;-84
2021/03/10 12:01:36;;;;;;;22.43;16.17;;;6.30;73.40;;;;;;5074767;28;20189;-84
2021/03/10 12:04:06;;;;;;;28.77;20.37;;;6.40;73.30;;;;;;5092813;28;20587;-84
2021/03/10 12:06:35;;;;;;;22.53;14.20;;;6.50;72.60;;;;;;5074803;28;20550;-84
2021/03/10 12:09:06;;;;;;;24.47;18.17;;;6.60;71.10;;;;;;5092890;28;20165;-84
2021/03/10 12:11:37;;;;;;;27.43;18.43;;;6.70;70.60;;;;;;5074962;28;20176;-84
2021/03/10 12:14:08;;;;;;;26.80;18.43;;;7.00;71.90;;;;;;5074789;28;20199;-84
2021/03/10 12:16:37;;;;;;;22.93;16.23;;;7.20;71.60;;;;;;5092891;28;20177;-85
2021/03/10 12:19:07;;;;;;;25.90;18.47;;;7.30;69.50;;;;;;5074719;28;20188;-83
2021/03/10 12:21:36;;;;;;;21.97;16.70;;;7.30;68.70;;;;;;5093468;28;20181;-83
2021/03/10 12:24:08;;;;;;;26.40;18.50;;;7.40;68.90;;;;;;5092840;28;20201;-83
2021/03/10 12:26:44;;;;;;;25.83;19.47;;;7.60;68.90;;;;;;5096674;28;20174;-84
2021/03/10 12:29:17;;;;;;;26.97;19.60;;;7.60;66.20;;;;;;5078411;28;20168;-85
2021/03/10 12:31:49;;;;;;;24.07;18.77;;;7.50;66.10;;;;;;5078649;28;20616;-86
2021/03/10 12:34:21;;;;;;;26.70;17.93;;;7.50;65.60;;;;;;5096869;28;20240;-86
2021/03/10 12:36:48;;;;;;;24.80;17.10;;;7.70;66.20;;;;;;5078376;28;20584;-84
2021/03/10 12:39:21;;;;;;;25.67;18.77;;;7.60;65.90;;;;;;5096412;28;20169;-84
2021/03/10 12:41:51;;;;;;;24.37;16.50;;;7.50;66.60;;;;;;5096290;28;20178;-85
2021/03/10 12:44:24;;;;;;;24.17;19.30;;;7.50;65.90;;;;;;5077901;28;20691;-84
2021/03/10 12:46:56;;;;;;;26.67;19.57;;;7.60;66.20;;;;;;5096227;28;20201;-85
2021/03/10 12:49:28;;;;;;;21.87;13.63;;;7.50;66.70;;;;;;5077923;28;20264;-85
2021/03/10 12:52:01;;;;;;;32.17;20.67;;;7.30;66.50;;;;;;5077909;28;20189;-85
2021/03/10 12:54:31;;;;;;;21.53;14.50;;;7.30;67.60;;;;;;5096073;28;20172;-85
2021/03/10 12:56:59;;;;;;;27.97;19.97;;;7.20;66.70;;;;;;5096064;28;20173;-85
2021/03/10 12:59:36;;;;;;;29.23;19.97;;;7.20;67.40;;;;;;5095868;28;20183;-85
2021/03/10 13:02:09;;;;;;;26.40;20.03;;;7.60;68.50;;;;;;5077743;28;20180;-85
2021/03/10 13:04:36;;;;;;;27.00;19.17;;;7.60;68.00;;;;;;5096088;28;20190;-85